Terminal Aerodrome Forecast
Issued by NWS La Crosse, WI

Home | Current Version | Previous Version | Text Only | Print | Product List | Glossary On
Versions: 1 2 3 4 5 6 7 8 9 10 11 12 13 14 15 16 17 18 19 20 21 22 23 24 25 26 27 28
000
FTUS43 KARX 220532 AAA
TAFRST
TAF AMD
KRST 220532Z 2206/2306 15009KT P6SM BKN004
     FM220800 18010KT 3SM BR OVC003
     FM220900 21005KT 1/2SM FG BKN003
     FM221200 26005KT P6SM BKN015
     FM221900 32008KT P6SM SCT040=

USA.gov is the U.S. government's official web portal to all federal, state and local government web resources and services.